Time;durP1;ratioP1;P1;durP2;ratioP2;P2;SDS_P1;SDS_P2;PMS_P1;PMS_P2;Temp;Humidity;BMP_temperature;BMP_pressure;BME280_temperature;BME280_humidity;BME280_pressure;Samples;Min_cycle;Max_cycle;Signal;HPM_P1;HPM_P2
2021/03/04 00:00:34;;;;;;;2.30;1.60;;;25.10;66.70;;;;;;5069226;28;20382;-72
2021/03/04 00:03:02;;;;;;;5.47;1.27;;;25.10;66.70;;;;;;5068372;28;20046;-72
2021/03/04 00:05:28;;;;;;;3.05;1.10;;;25.10;66.70;;;;;;5070727;28;20146;-71
2021/03/04 00:07:55;;;;;;;5.72;1.25;;;25.10;66.80;;;;;;5067442;28;20028;-72
2021/03/04 00:10:23;;;;;;;3.63;1.15;;;25.10;66.80;;;;;;5070002;28;20037;-72
2021/03/04 00:12:50;;;;;;;3.78;1.58;;;25.10;66.80;;;;;;5068868;28;20090;-72
2021/03/04 00:15:23;;;;;;;3.30;1.60;;;25.10;66.90;;;;;;5068222;28;20027;-72
2021/03/04 00:17:51;;;;;;;6.00;1.25;;;25.10;66.90;;;;;;5066902;28;22527;-72
2021/03/04 00:20:26;;;;;;;3.70;1.52;;;25.10;66.90;;;;;;5048553;28;20052;-72
2021/03/04 00:22:53;;;;;;;2.22;1.30;;;25.10;67.00;;;;;;5068912;28;20495;-72
2021/03/04 00:25:22;;;;;;;3.15;1.48;;;25.10;67.00;;;;;;5069419;28;20031;-72
2021/03/04 00:27:49;;;;;;;3.35;1.10;;;25.10;67.10;;;;;;5068724;28;20049;-72
2021/03/04 00:30:18;;;;;;;2.85;1.10;;;25.00;67.10;;;;;;5067445;28;20020;-72
2021/03/04 00:32:44;;;;;;;3.05;1.13;;;25.00;67.20;;;;;;5070512;28;20021;-72
2021/03/04 00:35:12;;;;;;;3.35;1.60;;;25.00;67.20;;;;;;5067049;28;20027;-72
2021/03/04 00:37:38;;;;;;;4.25;1.23;;;25.00;67.20;;;;;;5067346;28;20017;-71
2021/03/04 00:40:11;;;;;;;3.60;1.75;;;25.00;67.20;;;;;;5068499;28;20552;-72
2021/03/04 00:42:38;;;;;;;3.45;1.48;;;25.00;67.20;;;;;;5067515;28;20035;-71
2021/03/04 00:45:23;;;;;;;5.70;1.45;;;25.00;67.20;;;;;;5069460;28;20395;-72
2021/03/04 00:47:49;;;;;;;5.80;1.70;;;25.00;67.20;;;;;;5068453;28;20037;-71
2021/03/04 00:50:18;;;;;;;4.75;2.00;;;25.00;67.20;;;;;;5068931;28;20017;-72
2021/03/04 00:52:44;;;;;;;4.13;1.58;;;25.00;67.20;;;;;;5070129;28;20021;-72
2021/03/04 00:55:11;;;;;;;2.85;1.42;;;25.00;67.10;;;;;;5066709;28;20028;-72
2021/03/04 00:57:38;;;;;;;4.68;1.60;;;25.00;67.10;;;;;;5069497;28;20052;-71
2021/03/04 01:00:07;;;;;;;4.90;1.60;;;24.90;67.00;;;;;;5068774;28;20028;-72
2021/03/04 01:02:34;;;;;;;7.10;2.50;;;24.90;67.10;;;;;;5069066;28;20028;-72
2021/03/04 01:05:01;;;;;;;7.10;1.40;;;24.90;67.10;;;;;;5068651;28;20016;-72
2021/03/04 01:07:28;;;;;;;2.35;1.13;;;24.90;67.00;;;;;;5069118;28;20426;-72
2021/03/04 01:09:55;;;;;;;4.82;1.25;;;24.90;67.10;;;;;;5069233;28;20024;-72
2021/03/04 01:12:22;;;;;;;4.85;1.23;;;24.90;67.10;;;;;;5049574;28;20028;-72
2021/03/04 01:14:48;;;;;;;5.13;1.70;;;24.90;67.10;;;;;;5068480;28;20020;-72
2021/03/04 01:17:15;;;;;;;6.25;1.45;;;24.90;67.10;;;;;;5044234;28;20028;-72
2021/03/04 01:19:42;;;;;;;4.53;1.50;;;24.90;67.10;;;;;;5069701;28;20055;-72
2021/03/04 01:22:08;;;;;;;2.72;1.23;;;24.90;67.00;;;;;;5067582;28;20156;-72
2021/03/04 01:24:35;;;;;;;4.63;1.33;;;24.90;67.10;;;;;;5064878;28;20020;-71
2021/03/04 01:27:02;;;;;;;4.45;1.48;;;24.90;67.10;;;;;;5067180;28;20392;-72
2021/03/04 01:29:28;;;;;;;4.22;1.50;;;24.90;67.00;;;;;;5069206;28;20501;-72
2021/03/04 01:31:55;;;;;;;5.65;1.40;;;24.80;67.00;;;;;;5049949;28;20028;-71
2021/03/04 01:34:21;;;;;;;7.40;1.60;;;24.80;66.90;;;;;;5066918;28;20463;-71
2021/03/04 01:36:48;;;;;;;7.15;2.40;;;24.80;66.90;;;;;;5067152;28;20419;-72
2021/03/04 01:39:14;;;;;;;5.10;1.60;;;24.80;66.90;;;;;;5067811;28;20021;-71
2021/03/04 01:41:41;;;;;;;6.28;1.90;;;24.80;67.00;;;;;;5070374;28;20059;-72
2021/03/04 01:44:07;;;;;;;4.88;1.25;;;24.80;66.90;;;;;;5069558;28;20036;-72
2021/03/04 01:46:34;;;;;;;6.22;2.15;;;24.80;67.00;;;;;;5049145;28;20029;-72
2021/03/04 01:49:01;;;;;;;7.65;2.00;;;24.80;67.10;;;;;;5067837;28;20071;-72
2021/03/04 01:51:27;;;;;;;5.57;2.25;;;24.80;67.00;;;;;;5068693;28;20020;-72
2021/03/04 01:53:54;;;;;;;8.32;2.00;;;24.80;67.00;;;;;;5068197;28;20017;-71
2021/03/04 01:56:21;;;;;;;9.15;2.17;;;24.80;66.90;;;;;;5067706;28;20025;-71
2021/03/04 01:58:47;;;;;;;8.05;1.77;;;24.80;67.00;;;;;;5069160;28;20657;-72
2021/03/04 02:01:14;;;;;;;8.45;1.52;;;24.70;66.90;;;;;;5069506;28;20025;-72
2021/03/04 02:03:40;;;;;;;7.20;1.60;;;24.70;66.90;;;;;;5069670;28;20500;-72
2021/03/04 02:06:07;;;;;;;8.05;2.03;;;24.70;66.90;;;;;;5065968;28;20128;-72
2021/03/04 02:08:44;;;;;;;6.72;1.65;;;24.70;67.60;;;;;;5068081;28;20043;-71
2021/03/04 02:11:22;;;;;;;9.25;2.70;;;24.70;66.90;;;;;;5067841;28;20446;-71
2021/03/04 02:13:58;;;;;;;7.80;1.92;;;24.70;67.00;;;;;;5067198;28;20058;-72
2021/03/04 02:16:31;;;;;;;11.52;3.22;;;24.70;67.00;;;;;;5069269;28;20509;-72
2021/03/04 02:19:01;;;;;;;4.93;1.83;;;24.70;67.60;;;;;;5066921;28;20041;-72
2021/03/04 02:21:59;;;;;;;8.02;2.00;;;24.70;67.00;;;;;;5067756;28;20033;-72
2021/03/04 02:24:29;;;;;;;7.00;2.10;;;24.60;66.90;;;;;;5052091;28;20036;-72
2021/03/04 02:27:11;;;;;;;5.82;1.70;;;24.60;67.00;;;;;;5068538;28;20468;-72
2021/03/04 02:29:57;;;;;;;4.72;1.58;;;24.60;67.00;;;;;;5067236;28;20020;-71
2021/03/04 02:32:26;;;;;;;5.18;1.95;;;24.60;67.00;;;;;;5066339;28;20026;-72
2021/03/04 02:35:19;;;;;;;8.95;2.00;;;24.60;67.00;;;;;;5068623;28;20438;-72
2021/03/04 02:37:52;;;;;;;5.22;1.90;;;24.60;67.00;;;;;;5055016;28;20491;-72
2021/03/04 02:40:21;;;;;;;6.32;1.83;;;24.60;67.10;;;;;;5069447;28;20043;-72
2021/03/04 02:42:49;;;;;;;4.97;1.70;;;24.60;67.10;;;;;;5065673;28;20020;-71
2021/03/04 02:45:17;;;;;;;4.88;1.90;;;24.60;67.10;;;;;;5067137;28;20024;-72
2021/03/04 02:47:44;;;;;;;4.97;1.55;;;24.60;67.10;;;;;;5068410;28;20040;-72
2021/03/04 02:50:12;;;;;;;4.55;1.85;;;24.60;67.10;;;;;;5068765;28;20021;-71
2021/03/04 02:52:39;;;;;;;5.53;2.33;;;24.60;67.10;;;;;;5068411;28;20387;-72
2021/03/04 02:55:07;;;;;;;7.85;1.90;;;24.60;67.10;;;;;;5067758;28;20016;-71
2021/03/04 02:57:35;;;;;;;5.60;1.38;;;24.60;67.10;;;;;;5066988;28;20070;-72
2021/03/04 03:00:03;;;;;;;8.57;1.77;;;24.50;67.20;;;;;;5064082;28;20067;-72
2021/03/04 03:02:30;;;;;;;11.68;9.57;;;24.50;67.20;;;;;;5050252;28;20016;-71
2021/03/04 03:04:58;;;;;;;20.65;12.80;;;24.50;67.20;;;;;;5066330;28;20017;-71
2021/03/04 03:07:26;;;;;;;10.93;9.82;;;24.50;67.30;;;;;;5068682;28;20103;-71
2021/03/04 03:09:54;;;;;;;11.02;6.10;;;24.50;67.30;;;;;;5066248;28;20019;-71
2021/03/04 03:12:21;;;;;;;7.03;4.00;;;24.50;67.20;;;;;;5067649;28;20028;-71
2021/03/04 03:14:48;;;;;;;6.93;2.95;;;24.50;67.20;;;;;;5068456;28;20023;-72
2021/03/04 03:17:14;;;;;;;4.88;2.15;;;24.40;67.10;;;;;;5067824;28;20012;-71
2021/03/04 03:19:41;;;;;;;6.82;2.75;;;24.40;67.20;;;;;;5068726;28;20127;-71
2021/03/04 03:22:08;;;;;;;4.85;2.38;;;24.40;67.20;;;;;;5066879;28;20048;-72
2021/03/04 03:24:34;;;;;;;5.78;1.65;;;24.40;67.20;;;;;;5069248;28;20070;-72
2021/03/04 03:27:01;;;;;;;8.57;3.08;;;24.40;67.20;;;;;;5066379;28;20021;-72
2021/03/04 03:29:27;;;;;;;6.72;2.00;;;24.40;67.10;;;;;;5067152;28;20071;-72
2021/03/04 03:31:57;;;;;;;5.47;1.73;;;24.40;67.00;;;;;;5067796;28;20029;-71
2021/03/04 03:34:24;;;;;;;4.65;1.23;;;24.30;67.00;;;;;;5068453;28;20103;-71
2021/03/04 03:36:54;;;;;;;5.18;1.70;;;24.30;66.80;;;;;;5068459;28;20029;-72
2021/03/04 03:39:21;;;;;;;3.05;1.42;;;24.30;66.70;;;;;;5063304;28;20025;-72
2021/03/04 03:41:47;;;;;;;4.03;1.60;;;24.30;66.60;;;;;;5066893;28;20028;-72
2021/03/04 03:44:15;;;;;;;3.85;1.00;;;24.30;66.50;;;;;;5066587;28;20078;-71
2021/03/04 03:46:42;;;;;;;3.85;1.60;;;24.30;66.40;;;;;;5067644;28;20023;-72
2021/03/04 03:49:12;;;;;;;5.05;1.55;;;24.30;66.30;;;;;;5067353;28;20061;-72
2021/03/04 03:51:39;;;;;;;4.70;1.40;;;24.30;66.20;;;;;;5068098;28;20063;-72
2021/03/04 03:54:07;;;;;;;4.32;1.30;;;24.30;66.10;;;;;;5067980;28;20025;-74
2021/03/04 03:56:36;;;;;;;4.18;1.85;;;24.30;66.10;;;;;;5068453;28;20027;-72
2021/03/04 03:59:04;;;;;;;3.58;1.63;;;24.30;66.10;;;;;;5064339;28;20013;-73
2021/03/04 04:01:33;;;;;;;11.82;5.70;;;24.20;66.10;;;;;;5066233;28;21426;-73
2021/03/04 04:04:00;;;;;;;7.30;5.35;;;24.20;66.10;;;;;;5066637;28;20530;-71
2021/03/04 04:06:31;;;;;;;10.20;4.25;;;24.30;66.20;;;;;;5066272;28;20025;-71
2021/03/04 04:08:59;;;;;;;6.10;3.30;;;24.20;66.20;;;;;;5066059;28;20016;-72
2021/03/04 04:11:27;;;;;;;4.75;2.03;;;24.20;66.20;;;;;;5069058;28;20091;-73
2021/03/04 04:13:55;;;;;;;4.55;1.98;;;24.20;66.30;;;;;;5068278;28;20020;-74
2021/03/04 04:16:23;;;;;;;8.48;1.80;;;24.20;66.50;;;;;;5069020;28;20032;-72
2021/03/04 04:18:50;;;;;;;4.10;1.27;;;24.20;66.50;;;;;;5070639;28;20101;-72
2021/03/04 04:21:20;;;;;;;5.93;1.75;;;24.20;66.50;;;;;;5070842;28;20078;-71
2021/03/04 04:23:47;;;;;;;3.05;1.23;;;24.20;66.50;;;;;;5069571;28;20047;-71
2021/03/04 04:26:15;;;;;;;6.85;1.70;;;24.20;66.40;;;;;;5071059;28;20020;-71
2021/03/04 04:28:41;;;;;;;5.10;1.38;;;24.20;66.40;;;;;;5072840;28;20111;-72
2021/03/04 04:31:08;;;;;;;5.90;1.55;;;24.20;66.30;;;;;;5069942;28;20031;-70
2021/03/04 04:33:34;;;;;;;8.30;2.03;;;24.20;66.30;;;;;;5070945;28;20021;-71
2021/03/04 04:36:01;;;;;;;4.82;1.80;;;24.20;66.20;;;;;;5070051;28;20028;-71
2021/03/04 04:38:28;;;;;;;5.10;1.48;;;24.20;66.10;;;;;;5071766;28;20378;-73
2021/03/04 04:40:54;;;;;;;2.75;1.35;;;24.20;66.00;;;;;;5052809;28;20476;-71
2021/03/04 04:43:21;;;;;;;4.00;1.90;;;24.20;65.90;;;;;;5071028;28;20016;-71
2021/03/04 04:45:48;;;;;;;35.20;31.20;;;24.20;65.70;;;;;;5067564;28;20772;-72
2021/03/04 04:48:14;;;;;;;51.75;46.65;;;24.20;65.70;;;;;;5070095;28;20027;-73
2021/03/04 04:50:41;;;;;;;36.30;31.95;;;24.20;65.70;;;;;;5071355;28;20475;-75
2021/03/04 04:53:11;;;;;;;23.77;21.35;;;24.20;65.60;;;;;;5068645;28;20570;-71
2021/03/04 04:55:38;;;;;;;16.27;13.75;;;24.20;65.50;;;;;;5052924;28;20537;-72
2021/03/04 04:58:04;;;;;;;13.48;9.65;;;24.20;65.40;;;;;;5066594;28;20021;-71
2021/03/04 05:00:31;;;;;;;9.63;5.65;;;24.20;65.40;;;;;;5070513;28;20036;-72
2021/03/04 05:02:57;;;;;;;7.38;3.95;;;24.20;65.40;;;;;;5070174;28;20024;-71
2021/03/04 05:05:25;;;;;;;4.43;2.90;;;24.20;65.30;;;;;;5069977;28;20020;-73
2021/03/04 05:07:53;;;;;;;7.38;2.33;;;24.20;65.30;;;;;;5066808;28;20039;-72
2021/03/04 05:10:20;;;;;;;4.93;2.67;;;24.20;65.30;;;;;;5068470;28;20036;-71
2021/03/04 05:12:46;;;;;;;8.52;1.85;;;24.20;65.30;;;;;;5071249;28;20069;-73
2021/03/04 05:15:13;;;;;;;7.03;1.83;;;24.20;65.20;;;;;;5068395;28;20009;-72
2021/03/04 05:17:40;;;;;;;6.10;1.75;;;24.20;65.20;;;;;;5071481;28;20641;-71
2021/03/04 05:20:08;;;;;;;4.30;2.20;;;24.20;65.30;;;;;;5070617;28;20028;-72
2021/03/04 05:22:34;;;;;;;5.53;2.28;;;24.20;65.30;;;;;;5070101;28;20478;-71
2021/03/04 05:25:01;;;;;;;2.97;1.50;;;24.20;65.30;;;;;;5071242;28;20025;-72
2021/03/04 05:27:28;;;;;;;4.57;1.33;;;24.20;65.30;;;;;;5069691;28;20557;-72
2021/03/04 05:29:54;;;;;;;4.63;1.75;;;24.20;65.30;;;;;;5069336;28;20032;-71
2021/03/04 05:32:21;;;;;;;3.58;1.45;;;24.20;66.00;;;;;;5068330;28;20025;-71
2021/03/04 05:34:47;;;;;;;6.03;2.03;;;24.20;65.30;;;;;;5071420;28;20125;-72
2021/03/04 05:37:14;;;;;;;5.72;2.03;;;24.20;65.30;;;;;;5070362;28;20483;-71
2021/03/04 05:39:41;;;;;;;3.33;1.30;;;24.20;65.60;;;;;;5070341;28;20551;-72
2021/03/04 05:42:09;;;;;;;4.38;1.27;;;24.20;65.20;;;;;;5068619;28;20083;-71
2021/03/04 05:44:37;;;;;;;3.28;1.55;;;24.20;65.20;;;;;;5069548;28;20117;-72
2021/03/04 05:47:05;;;;;;;4.13;1.40;;;24.20;65.10;;;;;;5070237;28;20082;-71
2021/03/04 05:49:36;;;;;;;6.00;1.50;;;24.20;65.00;;;;;;5069037;28;20025;-71
2021/03/04 05:52:07;;;;;;;3.92;1.60;;;24.30;65.00;;;;;;5067826;28;20032;-71
2021/03/04 05:54:37;;;;;;;4.85;1.52;;;24.20;64.80;;;;;;5070004;28;20021;-72
2021/03/04 05:57:07;;;;;;;5.20;1.75;;;24.20;64.70;;;;;;5069967;28;20105;-72
2021/03/04 05:59:35;;;;;;;5.90;1.65;;;24.30;64.70;;;;;;5068047;28;20072;-71
2021/03/04 06:02:05;;;;;;;3.80;1.52;;;24.30;64.60;;;;;;5068708;28;20475;-72
2021/03/04 06:04:32;;;;;;;6.20;2.33;;;24.30;64.50;;;;;;5068379;28;20155;-72
2021/03/04 06:06:59;;;;;;;6.32;1.70;;;24.30;64.40;;;;;;5067723;28;20020;-72
2021/03/04 06:09:28;;;;;;;4.75;1.67;;;24.30;64.30;;;;;;5069138;28;20039;-72
2021/03/04 06:12:04;;;;;;;4.65;1.45;;;24.30;64.20;;;;;;5069590;28;20048;-71
2021/03/04 06:14:32;;;;;;;6.75;1.45;;;24.30;64.10;;;;;;5069905;28;20013;-71
2021/03/04 06:17:19;;;;;;;4.72;2.28;;;24.30;64.10;;;;;;5069792;28;20025;-71
2021/03/04 06:19:56;;;;;;;4.78;1.42;;;24.30;64.10;;;;;;5068241;28;20506;-71
2021/03/04 06:22:30;;;;;;;6.43;1.70;;;24.40;64.20;;;;;;5069805;28;20488;-72
2021/03/04 06:24:59;;;;;;;6.85;1.30;;;24.40;64.30;;;;;;5069743;28;20024;-73
2021/03/04 06:27:33;;;;;;;7.32;2.47;;;24.40;64.30;;;;;;5067963;28;20528;-72
2021/03/04 06:30:02;;;;;;;6.60;1.83;;;24.40;64.30;;;;;;5046799;28;20078;-73
2021/03/04 06:32:28;;;;;;;6.30;2.28;;;24.40;64.20;;;;;;5067346;28;20070;-72
2021/03/04 06:35:09;;;;;;;5.30;1.50;;;24.40;64.10;;;;;;5050223;28;20461;-73
2021/03/04 06:37:38;;;;;;;9.35;2.63;;;24.40;64.00;;;;;;5069064;28;20020;-73
2021/03/04 06:40:29;;;;;;;9.02;2.22;;;24.40;63.90;;;;;;5067485;28;20104;-72
2021/03/04 06:42:56;;;;;;;7.13;2.13;;;24.40;63.90;;;;;;5058805;28;20036;-72
2021/03/04 06:45:24;;;;;;;6.18;1.55;;;24.40;63.80;;;;;;5067837;28;20024;-72
2021/03/04 06:47:52;;;;;;;7.20;2.10;;;24.40;63.60;;;;;;5068579;28;20025;-73
2021/03/04 06:50:25;;;;;;;5.97;1.65;;;24.40;63.30;;;;;;5064477;28;20055;-73
2021/03/04 06:52:53;;;;;;;6.95;2.08;;;24.40;63.10;;;;;;5067385;28;20033;-72
2021/03/04 06:55:20;;;;;;;5.95;1.75;;;24.40;62.90;;;;;;5064882;28;20021;-73
2021/03/04 06:58:03;;;;;;;7.40;1.73;;;24.40;62.70;;;;;;5068547;28;20468;-72
2021/03/04 07:00:30;;;;;;;5.88;2.25;;;24.40;62.50;;;;;;5067342;28;20033;-72
2021/03/04 07:02:58;;;;;;;5.70;1.80;;;24.40;62.40;;;;;;5065450;28;20013;-72
2021/03/04 07:05:26;;;;;;;8.93;2.45;;;24.40;62.10;;;;;;5069230;28;20111;-74
2021/03/04 07:07:55;;;;;;;9.15;2.05;;;24.40;62.00;;;;;;5068024;28;20028;-72
2021/03/04 07:10:23;;;;;;;5.95;1.83;;;24.40;61.90;;;;;;5067042;28;20024;-72
2021/03/04 07:12:50;;;;;;;5.95;1.80;;;24.50;61.80;;;;;;5051847;28;20480;-73
2021/03/04 07:15:19;;;;;;;5.93;1.80;;;24.50;61.60;;;;;;5066268;28;20016;-72
2021/03/04 07:17:49;;;;;;;6.03;1.75;;;24.50;61.40;;;;;;5069210;28;20027;-73
2021/03/04 07:20:18;;;;;;;8.07;2.03;;;24.60;61.20;;;;;;5065726;28;20079;-72
2021/03/04 07:22:47;;;;;;;3.00;1.20;;;24.60;61.00;;;;;;5069747;28;20013;-73
2021/03/04 07:25:14;;;;;;;3.55;1.33;;;24.70;60.90;;;;;;5066429;28;20537;-73
2021/03/04 07:27:42;;;;;;;5.30;1.45;;;24.70;60.80;;;;;;5048219;28;20403;-72
2021/03/04 07:30:10;;;;;;;7.32;2.03;;;24.70;60.60;;;;;;5066734;28;20021;-73
2021/03/04 07:32:39;;;;;;;9.63;2.25;;;24.70;60.40;;;;;;5069134;28;20059;-73
2021/03/04 07:35:13;;;;;;;4.95;1.58;;;24.80;60.10;;;;;;5069538;28;20422;-73
2021/03/04 07:37:42;;;;;;;5.00;1.67;;;24.90;59.90;;;;;;5064378;28;20086;-73
2021/03/04 07:40:14;;;;;;;5.38;1.52;;;24.90;59.70;;;;;;5065153;28;20155;-72
2021/03/04 07:42:40;;;;;;;10.07;1.70;;;24.90;59.40;;;;;;5066730;28;20036;-72
2021/03/04 07:45:15;;;;;;;7.57;2.20;;;25.00;59.90;;;;;;5067204;28;20062;-72
2021/03/04 07:47:42;;;;;;;8.82;2.15;;;25.00;59.10;;;;;;5073662;28;20107;-72
2021/03/04 07:50:25;;;;;;;6.93;1.80;;;25.00;59.00;;;;;;5070718;28;20028;-72
2021/03/04 07:53:04;;;;;;;5.72;1.55;;;25.00;59.00;;;;;;5072136;28;20024;-72
2021/03/04 07:55:39;;;;;;;6.82;1.67;;;25.00;58.70;;;;;;5072421;28;20017;-73
2021/03/04 07:58:15;;;;;;;1.98;1.50;;;25.00;58.60;;;;;;5069399;28;20018;-72
2021/03/04 08:00:42;;;;;;;8.38;1.95;;;25.00;58.30;;;;;;5069629;28;20058;-72
2021/03/04 08:03:08;;;;;;;6.60;1.92;;;25.10;58.00;;;;;;5070042;28;20035;-72
2021/03/04 08:05:37;;;;;;;4.95;2.10;;;25.10;57.60;;;;;;5071129;28;20480;-72
2021/03/04 08:08:12;;;;;;;9.80;2.67;;;25.10;57.30;;;;;;5068515;28;20028;-73
2021/03/04 08:10:45;;;;;;;;;;;25.10;57.00;;;;;;5072388;28;20471;-73
2021/03/04 08:13:12;;;;;;;5.68;1.65;;;25.20;56.80;;;;;;5071063;28;19909;-73
2021/03/04 08:15:46;;;;;;;3.35;1.30;;;25.20;56.80;;;;;;5070297;28;20047;-72
2021/03/04 08:18:20;;;;;;;6.15;1.90;;;25.30;56.60;;;;;;5071634;28;20020;-72
2021/03/04 08:20:51;;;;;;;4.53;1.75;;;25.30;56.40;;;;;;5070516;28;20131;-72
2021/03/04 08:23:19;;;;;;;5.55;1.10;;;25.40;56.30;;;;;;5068423;28;20024;-73
2021/03/04 08:25:47;;;;;;;6.18;2.42;;;25.40;56.10;;;;;;5072192;28;20024;-73
2021/03/04 08:28:24;;;;;;;4.35;1.70;;;25.50;55.70;;;;;;5069545;28;20047;-72
2021/03/04 08:30:51;;;;;;;7.38;1.70;;;25.60;55.50;;;;;;5069641;28;20451;-73
2021/03/04 08:33:17;;;;;;;5.38;2.17;;;25.60;55.40;;;;;;5070066;28;20017;-73
2021/03/04 08:35:46;;;;;;;5.97;2.00;;;25.60;54.90;;;;;;5070708;28;20056;-71
2021/03/04 08:38:16;;;;;;;8.30;1.90;;;25.70;54.50;;;;;;5071484;28;20187;-73
2021/03/04 08:40:43;;;;;;;9.55;2.88;;;25.80;54.30;;;;;;5072151;28;20042;-73
2021/03/04 08:43:18;;;;;;;4.20;1.15;;;25.80;54.00;;;;;;5069073;28;20059;-73
2021/03/04 08:45:46;;;;;;;6.97;2.28;;;25.80;53.90;;;;;;5071158;28;20020;-72
2021/03/04 08:48:14;;;;;;;6.93;1.83;;;25.80;53.70;;;;;;5071908;28;20024;-72
2021/03/04 08:50:45;;;;;;;6.93;1.65;;;25.90;53.70;;;;;;5070065;28;20036;-73
2021/03/04 08:53:14;;;;;;;2.75;1.40;;;25.90;53.70;;;;;;5070888;28;20119;-72
2021/03/04 08:55:48;;;;;;;2.70;1.45;;;25.90;53.40;;;;;;5069795;28;20025;-73
2021/03/04 08:58:15;;;;;;;6.78;1.80;;;25.90;53.50;;;;;;5070918;28;20019;-72
2021/03/04 09:00:56;;;;;;;5.35;1.60;;;25.90;53.50;;;;;;5069633;28;20053;-72
2021/03/04 09:03:24;;;;;;;8.35;2.10;;;26.00;53.40;;;;;;5066544;28;20036;-73
2021/03/04 09:06:08;;;;;;;4.53;1.90;;;26.00;53.50;;;;;;5072072;28;20017;-72
2021/03/04 09:08:38;;;;;;;5.95;1.80;;;26.10;53.40;;;;;;5069931;28;20156;-72
2021/03/04 09:11:10;;;;;;;10.98;2.38;;;26.10;53.30;;;;;;5070196;28;20020;-73
2021/03/04 09:13:37;;;;;;;3.53;1.45;;;26.10;53.00;;;;;;5072858;28;20529;-73
2021/03/04 09:16:07;;;;;;;7.53;1.65;;;26.20;52.90;;;;;;5070723;28;20021;-72
2021/03/04 09:18:45;;;;;;;6.68;1.70;;;26.20;53.00;;;;;;5051282;28;20505;-73
2021/03/04 09:21:13;;;;;;;5.35;1.77;;;26.30;52.90;;;;;;5068119;28;20025;-72
2021/03/04 09:23:40;;;;;;;6.68;1.85;;;26.30;52.70;;;;;;5068539;28;20518;-73
2021/03/04 09:26:08;;;;;;;5.50;1.80;;;26.30;52.60;;;;;;5068587;28;20017;-72
2021/03/04 09:28:41;;;;;;;7.97;2.17;;;26.30;52.60;;;;;;5051798;28;20021;-73
2021/03/04 09:31:15;;;;;;;7.93;2.00;;;26.40;52.50;;;;;;5068105;28;20036;-71
2021/03/04 09:33:43;;;;;;;7.78;2.22;;;26.50;52.50;;;;;;5070606;28;20070;-73
2021/03/04 09:36:10;;;;;;;3.40;1.30;;;26.50;52.60;;;;;;5071602;28;20025;-73
2021/03/04 09:38:38;;;;;;;4.43;1.60;;;26.60;52.50;;;;;;5069106;28;20043;-73
2021/03/04 09:41:50;;;;;;;10.15;2.08;;;26.60;52.50;;;;;;5069058;28;20537;-72
2021/03/04 09:45:05;;;;;;;5.00;1.77;;;26.70;52.10;;;;;;5070321;28;20082;-72
2021/03/04 09:48:11;;;;;;;4.50;1.65;;;26.70;52.30;;;;;;5049701;28;20036;-72
2021/03/04 09:51:17;;;;;;;8.18;2.10;;;26.70;52.10;;;;;;5070661;28;20020;-72
2021/03/04 09:54:26;;;;;;;7.68;2.90;;;26.70;52.10;;;;;;5067017;28;20193;-72
2021/03/04 09:57:41;;;;;;;7.75;1.95;;;26.80;52.20;;;;;;5070041;28;20081;-73
2021/03/04 10:00:48;;;;;;;4.53;1.75;;;26.80;52.30;;;;;;5068530;28;20512;-73
2021/03/04 10:03:54;;;;;;;8.80;2.33;;;26.80;52.00;;;;;;5066541;28;20040;-72
2021/03/04 10:07:16;;;;;;;4.18;1.35;;;26.90;52.10;;;;;;5069482;28;20044;-72
2021/03/04 10:10:22;;;;;;;6.53;1.58;;;27.00;51.90;;;;;;5069218;28;20348;-72
2021/03/04 10:13:46;;;;;;;5.15;1.60;;;27.00;51.60;;;;;;5067860;28;20022;-72
2021/03/04 10:16:52;;;;;;;5.20;2.35;;;27.00;51.40;;;;;;5064746;28;20787;-72
2021/03/04 10:19:58;;;;;;;8.65;2.58;;;27.00;51.00;;;;;;5065656;28;20036;-73
2021/03/04 10:23:04;;;;;;;7.40;1.83;;;27.10;51.20;;;;;;5068063;28;20128;-73
2021/03/04 10:26:10;;;;;;;6.60;3.17;;;27.10;51.00;;;;;;5066176;28;20019;-72
2021/03/04 10:29:16;;;;;;;10.68;2.15;;;27.20;50.80;;;;;;5071083;28;20020;-72
2021/03/04 10:32:22;;;;;;;5.90;1.77;;;27.30;50.50;;;;;;5069963;28;20559;-72
2021/03/04 10:35:29;;;;;;;6.20;2.42;;;27.30;50.50;;;;;;5069456;28;20413;-73
2021/03/04 10:38:35;;;;;;;6.22;1.77;;;27.40;50.40;;;;;;5067451;28;20480;-72
2021/03/04 10:41:41;;;;;;;6.55;1.60;;;27.40;50.10;;;;;;5066809;28;20036;-72
2021/03/04 10:44:47;;;;;;;8.82;2.05;;;27.50;50.00;;;;;;5069699;28;20031;-72
2021/03/04 10:47:53;;;;;;;7.18;1.98;;;27.50;49.70;;;;;;5068050;28;20086;-73
2021/03/04 10:50:59;;;;;;;7.50;2.97;;;27.60;49.60;;;;;;5067854;28;20051;-72
2021/03/04 10:54:05;;;;;;;6.45;1.98;;;27.70;49.60;;;;;;5068225;28;20017;-72
2021/03/04 10:57:11;;;;;;;3.42;1.40;;;27.70;49.40;;;;;;5068716;28;20013;-72
2021/03/04 11:00:17;;;;;;;6.40;2.35;;;27.70;49.30;;;;;;5069211;28;20031;-72
2021/03/04 11:03:24;;;;;;;6.88;2.20;;;27.80;49.60;;;;;;5067655;28;20510;-73
2021/03/04 11:06:30;;;;;;;6.20;2.00;;;27.80;49.30;;;;;;5065876;28;20028;-72
2021/03/04 11:09:36;;;;;;;7.20;1.80;;;27.80;49.40;;;;;;5067022;28;20421;-71
2021/03/04 11:12:42;;;;;;;6.78;1.80;;;27.70;49.10;;;;;;5064812;28;20115;-72
2021/03/04 11:15:48;;;;;;;7.30;2.28;;;27.70;49.20;;;;;;5070121;28;20020;-72
2021/03/04 11:18:54;;;;;;;4.63;1.83;;;27.70;49.40;;;;;;5068874;28;20111;-72
2021/03/04 11:22:00;;;;;;;6.68;1.92;;;27.70;49.40;;;;;;5071769;28;20045;-73
2021/03/04 11:25:06;;;;;;;8.25;1.92;;;27.70;49.70;;;;;;5073497;28;20023;-72
2021/03/04 11:28:13;;;;;;;8.27;1.88;;;27.60;49.50;;;;;;5069987;28;20075;-72
2021/03/04 11:31:19;;;;;;;5.05;1.30;;;27.60;49.60;;;;;;5068923;28;20123;-72
2021/03/04 11:34:25;;;;;;;9.63;2.78;;;27.50;49.60;;;;;;5071155;28;20028;-72
2021/03/04 11:37:31;;;;;;;8.43;2.25;;;27.40;49.70;;;;;;5071190;28;20021;-72
2021/03/04 11:40:37;;;;;;;8.80;2.17;;;27.30;49.80;;;;;;5070825;28;20063;-72
2021/03/04 11:43:43;;;;;;;11.85;3.08;;;27.40;49.90;;;;;;5067368;28;20037;-73
2021/03/04 11:46:49;;;;;;;6.88;2.05;;;27.40;50.30;;;;;;5071413;28;20024;-72
2021/03/04 11:49:55;;;;;;;7.53;2.00;;;27.40;49.40;;;;;;5070468;28;20483;-72
2021/03/04 11:53:01;;;;;;;9.60;2.30;;;27.50;49.20;;;;;;5065200;28;20017;-72
2021/03/04 11:56:07;;;;;;;6.80;1.98;;;27.50;49.10;;;;;;5070681;28;20135;-72
2021/03/04 11:59:13;;;;;;;5.55;1.90;;;27.60;49.00;;;;;;5069527;28;20446;-72
2021/03/04 12:02:19;;;;;;;5.15;1.80;;;27.60;48.90;;;;;;5072665;28;20066;-72
2021/03/04 12:05:26;;;;;;;2.45;1.42;;;27.60;48.90;;;;;;5072320;28;20027;-73
2021/03/04 12:08:32;;;;;;;7.32;2.17;;;27.70;48.80;;;;;;5048363;28;20400;-73
2021/03/04 12:11:38;;;;;;;6.35;2.15;;;27.80;48.80;;;;;;5070951;28;20074;-72
2021/03/04 12:14:44;;;;;;;3.78;2.00;;;27.80;48.10;;;;;;5070637;28;20025;-72
2021/03/04 12:17:50;;;;;;;4.68;2.17;;;27.90;48.20;;;;;;5070804;28;20166;-72
2021/03/04 12:20:56;;;;;;;6.13;1.75;;;27.90;48.20;;;;;;5071534;28;20413;-72
2021/03/04 12:24:02;;;;;;;5.57;1.70;;;28.00;48.00;;;;;;5071179;28;20042;-73
2021/03/04 12:27:08;;;;;;;6.82;3.00;;;28.00;47.70;;;;;;5069939;28;20472;-73
2021/03/04 12:30:16;;;;;;;5.82;1.70;;;28.10;47.50;;;;;;5071515;28;20032;-72
2021/03/04 12:33:22;;;;;;;5.22;1.58;;;28.20;47.40;;;;;;5071542;28;20016;-72
2021/03/04 12:36:28;;;;;;;7.10;1.85;;;28.30;47.30;;;;;;5072193;28;20028;-72
2021/03/04 12:39:34;;;;;;;4.80;1.98;;;28.40;46.70;;;;;;5067974;28;20024;-72
2021/03/04 12:42:40;;;;;;;5.25;2.00;;;28.40;46.30;;;;;;5067673;28;20529;-72
2021/03/04 12:45:47;;;;;;;5.93;1.80;;;28.50;46.00;;;;;;5051670;28;20023;-72
2021/03/04 12:48:53;;;;;;;8.70;2.00;;;28.50;45.40;;;;;;5067631;28;20056;-72
2021/03/04 12:51:59;;;;;;;8.25;1.98;;;28.60;45.40;;;;;;5071146;28;20021;-72
2021/03/04 12:55:05;;;;;;;8.23;2.83;;;28.60;45.20;;;;;;5071763;28;20008;-73
2021/03/04 12:58:11;;;;;;;4.88;1.58;;;28.60;44.70;;;;;;5069721;28;20107;-72
2021/03/04 13:01:18;;;;;;;7.93;2.60;;;28.60;44.90;;;;;;5069248;28;20025;-72
2021/03/04 13:04:24;;;;;;;4.40;2.45;;;28.50;44.20;;;;;;5070429;28;20025;-72
2021/03/04 13:07:30;;;;;;;8.90;1.88;;;28.50;44.30;;;;;;5068930;28;20021;-72
2021/03/04 13:10:36;;;;;;;5.07;2.40;;;28.50;44.50;;;;;;5069632;28;20487;-72
2021/03/04 13:13:43;;;;;;;4.50;1.73;;;28.50;44.00;;;;;;5067370;28;20826;-72
2021/03/04 13:16:49;;;;;;;6.10;2.13;;;28.60;44.10;;;;;;5067123;28;20111;-72
2021/03/04 13:19:55;;;;;;;6.82;1.75;;;28.60;44.20;;;;;;5069887;28;20075;-72
2021/03/04 13:23:01;;;;;;;4.28;1.60;;;28.60;43.90;;;;;;5070012;28;20038;-72
2021/03/04 13:26:07;;;;;;;8.38;2.30;;;28.60;43.30;;;;;;5049840;28;20104;-73
2021/03/04 13:29:13;;;;;;;2.80;1.33;;;28.70;43.60;;;;;;5072386;28;20023;-71
2021/03/04 13:32:19;;;;;;;5.53;1.92;;;28.70;43.80;;;;;;5068398;28;20017;-72
2021/03/04 13:35:25;;;;;;;4.30;2.58;;;28.60;43.40;;;;;;5071971;28;20467;-72
2021/03/04 13:38:31;;;;;;;4.68;2.03;;;28.60;43.50;;;;;;5052820;28;20050;-72
2021/03/04 13:41:37;;;;;;;4.60;1.30;;;28.70;43.10;;;;;;5070020;28;20565;-72
2021/03/04 13:44:43;;;;;;;10.35;2.13;;;28.60;43.10;;;;;;5068073;28;20033;-72